createdAt,value
2023-03-21T00:00:53.688Z,30.80
2023-03-21T00:03:21.922Z,28.83
2023-03-21T00:05:54.079Z,30.67
2023-03-21T00:08:23.698Z,30.58
2023-03-21T00:11:02.913Z,30.10
2023-03-21T00:13:34.280Z,32.47
2023-03-21T00:16:18.542Z,28.27
2023-03-21T00:18:52.958Z,28.40
2023-03-21T00:21:40.928Z,30.88
2023-03-21T00:24:11.473Z,31.27
2023-03-21T00:26:39.135Z,30.05
2023-03-21T00:29:07.964Z,32.50
2023-03-21T00:31:35.967Z,30.10
2023-03-21T00:34:05.095Z,30.98
2023-03-21T00:36:33.012Z,31.60
2023-03-21T00:39:01.163Z,31.98
2023-03-21T00:41:42.156Z,32.07
2023-03-21T00:44:15.866Z,30.00
2023-03-21T00:46:54.527Z,30.83
2023-03-21T00:49:26.185Z,34.22
2023-03-21T00:51:55.305Z,29.55
2023-03-21T00:54:27.651Z,31.17
2023-03-21T00:57:04.490Z,26.85
2023-03-21T00:59:32.132Z,29.20
2023-03-21T01:02:04.041Z,33.80
2023-03-21T01:04:32.881Z,30.50
2023-03-21T01:07:00.932Z,30.30
2023-03-21T01:09:28.959Z,28.08
2023-03-21T01:11:58.812Z,29.00
2023-03-21T01:14:26.531Z,28.48
2023-03-21T01:16:55.104Z,26.48
2023-03-21T01:19:48.294Z,27.83
2023-03-21T01:22:18.323Z,27.73
2023-03-21T01:24:54.163Z,28.23
2023-03-21T01:27:24.465Z,25.65
2023-03-21T01:29:53.232Z,24.80
2023-03-21T01:32:22.920Z,24.37
2023-03-21T01:34:50.620Z,26.13
2023-03-21T01:37:20.142Z,27.27
2023-03-21T01:39:50.961Z,25.63
2023-03-21T01:42:20.008Z,26.85
2023-03-21T01:44:58.018Z,25.17
2023-03-21T01:47:30.909Z,25.73
2023-03-21T01:50:06.640Z,26.38
2023-03-21T01:52:50.155Z,25.20
2023-03-21T01:55:25.604Z,25.67
